Time;durP1;ratioP1;P1;durP2;ratioP2;P2;SDS_P1;SDS_P2;PMS_P1;PMS_P2;Temp;Humidity;BMP_temperature;BMP_pressure;BME280_temperature;BME280_humidity;BME280_pressure;Samples;Min_cycle;Max_cycle;Signal;HPM_P1;HPM_P2
2023/10/14 00:00:28;;;;;;;14.63;7.07;;;;;;;23.40;55.83;99305.56;687809;28;1371;-92
2023/10/14 00:01:15;;;;;;;11.35;6.63;;;;;;;23.40;55.92;99289.59;691962;28;704;-91
2023/10/14 00:02:05;;;;;;;17.80;7.47;;;;;;;23.48;55.52;99315.84;696425;28;723;-90
2023/10/14 00:02:28;;;;;;;16.60;7.53;;;;;;;23.43;55.42;99297.44;685423;28;1380;-92
2023/10/14 00:02:51;;;;;;;16.48;7.00;;;;;;;23.51;55.36;99310.34;687991;28;1293;-93
2023/10/14 00:04:09;;;;;;;15.15;6.35;;;;;;;23.42;55.42;99303.66;682743;28;1401;-92
2023/10/14 00:04:30;;;;;;;10.40;6.10;;;;;;;23.45;55.64;99305.31;686210;28;1321;-93
2023/10/14 00:04:55;;;;;;;12.10;6.88;;;;;;;23.26;55.89;99328.41;691031;28;1302;-91
2023/10/14 00:05:15;;;;;;;16.13;7.40;;;;;;;23.41;55.70;99310.81;693619;28;1754;-91
2023/10/14 00:05:36;;;;;;;14.52;6.88;;;;;;;23.42;55.58;99306.34;690370;28;1341;-90
2023/10/14 00:06:06;;;;;;;12.45;6.68;;;;;;;23.43;55.66;99308.09;693920;28;1371;-89
2023/10/14 00:06:27;;;;;;;12.45;7.22;;;;;;;23.39;55.56;99303.84;693682;28;1378;-93
2023/10/14 00:06:48;;;;;;;14.50;7.32;;;;;;;23.39;55.55;99301.19;691211;28;1275;-90
2023/10/14 00:07:11;;;;;;;13.68;6.88;;;;;;;23.37;55.42;99300.41;691363;28;1206;-91
2023/10/14 00:07:31;;;;;;;9.80;6.40;;;;;;;23.40;55.56;99308.22;694005;28;1423;-90
2023/10/14 00:07:53;;;;;;;9.40;6.40;;;;;;;23.29;55.60;99292.78;690998;28;1277;-91
2023/10/14 00:08:14;;;;;;;9.95;6.10;;;;;;;23.34;55.44;99308.50;693872;28;1338;-89
2023/10/14 00:08:39;;;;;;;11.52;6.15;;;;;;;23.24;55.57;99282.34;691103;28;1258;-92
2023/10/14 00:09:11;;;;;;;12.60;6.40;;;;;;;23.24;55.83;99313.44;688449;28;1222;-92
2023/10/14 00:09:42;;;;;;;13.02;6.72;;;;;;;23.24;56.06;99303.66;696057;28;1208;-89
2023/10/14 00:10:05;;;;;;;17.35;6.88;;;;;;;23.29;55.99;99324.69;690945;28;1414;-91
2023/10/14 00:10:33;;;;;;;20.00;7.43;;;;;;;23.31;55.87;99309.53;688332;28;1367;-92
2023/10/14 00:10:54;;;;;;;19.70;6.93;;;;;;;23.30;55.95;99312.28;693728;28;1631;-90
2023/10/14 00:11:15;;;;;;;12.20;7.50;;;;;;;23.31;55.81;99301.56;688206;28;1239;-93
2023/10/14 00:11:40;;;;;;;16.48;7.22;;;;;;;23.26;55.62;99285.81;685311;28;1608;-90
2023/10/14 00:12:04;;;;;;;17.38;7.55;;;;;;;23.33;55.72;99301.47;693846;28;1410;-89
2023/10/14 00:12:28;;;;;;;17.95;6.90;;;;;;;23.35;55.45;99283.66;689966;28;1382;-92
2023/10/14 00:12:53;;;;;;;11.55;6.60;;;;;;;23.26;55.50;99296.47;691000;28;1209;-91
2023/10/14 00:13:16;;;;;;;10.45;6.55;;;;;;;23.31;55.34;99287.38;690572;28;1486;-93
2023/10/14 00:13:41;;;;;;;13.07;7.55;;;;;;;23.23;55.43;99307.25;690657;28;1303;-89
2023/10/14 00:14:16;;;;;;;14.15;7.93;;;;;;;23.24;55.57;99300.97;693610;28;1343;-90
2023/10/14 00:14:37;;;;;;;12.00;7.03;;;;;;;23.19;55.59;99286.19;698105;28;1145;-92
2023/10/14 00:15:03;;;;;;;12.88;7.20;;;;;;;23.27;55.56;99303.50;690857;28;1253;-90
2023/10/14 00:15:30;;;;;;;11.20;7.20;;;;;;;23.34;55.33;99313.84;687965;28;1407;-90
2023/10/14 00:15:51;;;;;;;11.50;7.05;;;;;;;23.27;55.38;99322.13;690574;28;1371;-89
2023/10/14 00:16:24;;;;;;;11.87;6.90;;;;;;;23.31;55.24;99309.53;692996;28;1234;-92
2023/10/14 00:16:51;;;;;;;12.13;7.18;;;;;;;23.15;55.74;99301.44;690559;28;1355;-93
2023/10/14 00:17:21;;;;;;;11.75;7.22;;;;;;;23.17;55.63;99286.25;688136;28;1299;-94
2023/10/14 00:17:42;;;;;;;12.35;7.13;;;;;;;23.20;55.50;99288.78;688277;28;1235;-93
2023/10/14 00:18:03;;;;;;;11.32;7.15;;;;;;;23.21;55.52;99298.47;693592;28;1232;-92
2023/10/14 00:18:25;;;;;;;11.93;7.60;;;;;;;23.07;55.60;99311.56;693458;28;1327;-92
2023/10/14 00:18:48;;;;;;;12.43;7.72;;;;;;;23.21;55.43;99309.13;688239;28;1451;-92
2023/10/14 00:19:11;;;;;;;14.50;7.70;;;;;;;23.16;55.73;99351.03;688244;28;1105;-91
2023/10/14 00:19:32;;;;;;;15.50;7.10;;;;;;;23.21;55.50;99326.88;688129;28;1317;-92
2023/10/14 00:19:56;;;;;;;17.00;7.00;;;;;;;23.28;55.39;99328.31;689838;28;1377;-92
2023/10/14 00:20:17;;;;;;;18.38;7.60;;;;;;;23.20;55.45;99307.41;692838;28;1334;-92
2023/10/14 00:20:38;;;;;;;18.38;7.40;;;;;;;23.17;55.40;99309.34;693141;28;1208;-90
2023/10/14 00:20:59;;;;;;;13.98;7.25;;;;;;;23.25;55.24;99296.53;688424;28;1522;-91
2023/10/14 00:21:20;;;;;;;12.07;7.18;;;;;;;23.16;55.09;99295.16;688266;28;1310;-92
2023/10/14 00:21:42;;;;;;;13.82;7.72;;;;;;;23.22;55.16;99328.59;685422;28;1287;-92
2023/10/14 00:22:05;;;;;;;16.02;7.88;;;;;;;23.18;55.27;99314.56;691030;28;1262;-93
2023/10/14 00:22:28;;;;;;;18.50;7.90;;;;;;;23.23;55.20;99320.53;687639;28;1906;-91
2023/10/14 00:22:49;;;;;;;14.98;7.40;;;;;;;23.25;55.18;99304.50;690832;28;1256;-90
2023/10/14 00:23:11;;;;;;;13.10;6.88;;;;;;;23.19;55.36;99303.03;696239;28;1222;-93
2023/10/14 00:23:32;;;;;;;14.93;6.90;;;;;;;23.26;55.12;99328.41;690810;28;1292;-94
2023/10/14 00:23:56;;;;;;;15.88;7.10;;;;;;;23.28;55.02;99293.72;688307;28;1237;-93
2023/10/14 00:24:27;;;;;;;14.68;7.15;;;;;;;23.28;55.34;99309.69;685442;28;1236;-93
2023/10/14 00:24:48;;;;;;;15.23;7.57;;;;;;;23.30;54.89;99337.06;690771;28;1196;-93
2023/10/14 00:25:18;;;;;;;15.48;7.68;;;;;;;23.33;55.04;99305.00;685582;28;1397;-91
2023/10/14 00:25:39;;;;;;;14.52;7.28;;;;;;;23.32;54.93;99307.72;687390;28;1337;-92
2023/10/14 00:26:00;;;;;;;14.83;7.43;;;;;;;23.36;54.92;99322.63;688358;28;1081;-92
2023/10/14 00:26:23;;;;;;;18.00;7.70;;;;;;;23.36;54.84;99325.28;688132;28;1358;-91
2023/10/14 00:26:48;;;;;;;17.15;7.78;;;;;;;23.38;54.92;99320.75;693740;28;1311;-94
2023/10/14 00:27:09;;;;;;;15.13;7.67;;;;;;;23.34;54.95;99303.19;690532;28;1262;-92
2023/10/14 00:27:30;;;;;;;11.63;7.70;;;;;;;23.33;55.04;99306.78;691235;28;1157;-91
2023/10/14 00:32:04;;;;;;;18.40;8.20;;;;;;;23.36;55.21;99320.81;699128;28;1523;-94
2023/10/14 00:32:25;;;;;;;12.30;7.80;;;;;;;23.35;55.02;99327.06;696415;28;1382;-92
2023/10/14 00:32:46;;;;;;;12.33;7.90;;;;;;;23.31;55.01;99324.63;693966;28;826;-94
2023/10/14 00:33:07;;;;;;;11.60;7.60;;;;;;;23.32;55.03;99310.38;691425;28;1389;-94
2023/10/14 00:33:27;;;;;;;13.90;7.30;;;;;;;23.37;54.95;99311.03;691043;28;1289;-91
2023/10/14 00:33:52;;;;;;;14.15;7.40;;;;;;;23.33;55.03;99301.47;688390;28;1258;-93
2023/10/14 00:34:14;;;;;;;16.90;7.63;;;;;;;23.33;54.74;99286.38;690816;28;1487;-93
2023/10/14 00:34:34;;;;;;;16.23;7.85;;;;;;;23.44;54.88;99304.47;690953;28;1353;-90
2023/10/14 00:34:55;;;;;;;15.63;7.80;;;;;;;23.41;54.43;99301.94;688260;28;1227;-91
2023/10/14 00:35:19;;;;;;;13.25;8.15;;;;;;;23.41;54.72;99305.50;690521;28;1218;-92
2023/10/14 00:35:42;;;;;;;12.35;7.90;;;;;;;23.24;54.79;99306.31;693495;28;1384;-94
2023/10/14 00:36:10;;;;;;;12.98;8.02;;;;;;;23.37;54.99;99313.69;687858;28;1331;-94
2023/10/14 00:36:31;;;;;;;12.18;7.95;;;;;;;23.36;54.77;99317.31;693709;28;1266;-93
2023/10/14 00:36:58;;;;;;;18.20;7.70;;;;;;;23.46;54.79;99291.06;696498;28;1241;-90
2023/10/14 00:37:19;;;;;;;23.65;8.35;;;;;;;23.40;54.84;99302.91;687936;28;1503;-92
2023/10/14 00:37:40;;;;;;;22.35;8.70;;;;;;;23.38;54.57;99312.75;690959;28;1292;-93
2023/10/14 00:38:08;;;;;;;15.63;8.17;;;;;;;23.40;54.87;99293.13;691140;28;1205;-94
2023/10/14 00:38:34;;;;;;;11.82;7.65;;;;;;;23.40;54.53;99305.56;693917;28;1272;-89
2023/10/14 00:38:57;;;;;;;12.65;7.60;;;;;;;23.36;54.75;99290.69;699216;28;1293;-89
2023/10/14 00:39:23;;;;;;;13.25;7.63;;;;;;;23.40;54.52;99321.53;688035;28;1347;-91
2023/10/14 00:39:44;;;;;;;13.52;7.82;;;;;;;23.41;54.67;99304.63;693465;28;1280;-90
2023/10/14 00:40:11;;;;;;;12.43;7.63;;;;;;;23.31;54.80;99298.03;693664;28;1312;-91
2023/10/14 00:40:32;;;;;;;10.10;7.07;;;;;;;23.36;54.89;99306.66;687980;28;1321;-92
2023/10/14 00:40:53;;;;;;;11.55;7.50;;;;;;;23.33;54.84;99315.66;688185;28;1260;-94
2023/10/14 00:41:14;;;;;;;13.07;7.80;;;;;;;23.41;54.52;99291.31;690019;28;1201;-91
2023/10/14 00:41:36;;;;;;;13.80;8.17;;;;;;;23.43;54.66;99337.38;690974;28;1228;-91
2023/10/14 00:41:58;;;;;;;14.88;8.20;;;;;;;23.42;54.49;99323.19;690567;28;1232;-91
2023/10/14 00:42:20;;;;;;;14.93;8.32;;;;;;;23.39;54.44;99349.09;696220;28;1965;-92
2023/10/14 00:42:43;;;;;;;13.75;8.32;;;;;;;23.44;54.71;99301.81;693279;28;1244;-90
2023/10/14 00:43:05;;;;;;;16.10;8.23;;;;;;;23.50;54.45;99312.16;688150;28;1404;-90
2023/10/14 00:43:26;;;;;;;19.70;8.25;;;;;;;23.53;54.27;99322.66;690751;28;1208;-93
2023/10/14 00:43:47;;;;;;;21.27;7.88;;;;;;;23.51;54.14;99305.03;685477;28;1174;-92
2023/10/14 00:44:09;;;;;;;18.42;7.90;;;;;;;23.44;54.32;99293.84;688089;28;1240;-90
2023/10/14 00:44:30;;;;;;;17.25;7.60;;;;;;;23.45;54.04;99338.16;690421;28;1332;-94
2023/10/14 00:44:53;;;;;;;17.17;7.40;;;;;;;23.54;54.10;99326.16;690946;28;1218;-91
2023/10/14 00:45:14;;;;;;;16.83;7.57;;;;;;;23.51;54.03;99303.25;696291;28;1225;-93
2023/10/14 00:45:43;;;;;;;14.07;7.30;;;;;;;23.53;54.00;99346.63;690946;28;1281;-91
2023/10/14 00:46:14;;;;;;;11.45;6.60;;;;;;;23.49;53.93;99301.59;687570;28;1313;-92
2023/10/14 00:46:36;;;;;;;16.25;7.30;;;;;;;23.47;53.73;99308.81;685483;28;1311;-92
2023/10/14 00:46:57;;;;;;;16.13;7.43;;;;;;;23.54;53.94;99327.03;685482;28;1404;-92
2023/10/14 00:47:18;;;;;;;13.17;7.67;;;;;;;23.48;54.08;99315.84;688234;28;1190;-91
2023/10/14 00:47:44;;;;;;;11.07;7.60;;;;;;;23.47;54.08;99317.63;682566;29;1323;-95
2023/10/14 00:48:06;;;;;;;12.57;7.60;;;;;;;23.39;54.00;99319.81;690798;28;1252;-90
2023/10/14 00:48:27;;;;;;;15.40;7.43;;;;;;;23.43;53.91;99326.72;688007;28;1327;-92
2023/10/14 00:48:48;;;;;;;16.20;7.60;;;;;;;23.55;54.10;99328.75;687947;28;1227;-93
2023/10/14 00:49:11;;;;;;;19.73;8.07;;;;;;;23.57;53.92;99336.69;690795;28;1228;-92
2023/10/14 00:49:33;;;;;;;17.05;8.00;;;;;;;23.52;53.99;99312.94;696384;28;1200;-93
2023/10/14 00:49:55;;;;;;;25.05;7.70;;;;;;;23.57;53.88;99326.03;685286;28;1352;-91
2023/10/14 00:50:34;;;;;;;20.35;7.20;;;;;;;23.58;53.71;99310.91;690062;28;1220;-92
2023/10/14 00:50:59;;;;;;;12.10;7.63;;;;;;;23.56;53.32;99317.16;693745;28;1289;-93
2023/10/14 00:51:22;;;;;;;13.25;7.40;;;;;;;23.47;53.55;99324.78;690756;28;1221;-93
2023/10/14 00:51:49;;;;;;;13.65;7.90;;;;;;;23.34;53.41;99333.34;690918;28;1112;-92
2023/10/14 00:52:18;;;;;;;12.27;7.25;;;;;;;23.23;53.98;99333.84;690756;28;1283;-93
2023/10/14 00:52:39;;;;;;;16.80;7.30;;;;;;;23.03;55.05;99326.81;691017;28;1363;-92
2023/10/14 00:53:05;;;;;;;18.17;7.68;;;;;;;22.94;55.35;99325.41;690964;28;1371;-92
2023/10/14 00:53:30;;;;;;;16.67;8.10;;;;;;;22.87;55.57;99326.66;696298;28;1255;-93
2023/10/14 00:53:52;;;;;;;15.68;8.25;;;;;;;22.76;55.91;99350.22;696361;28;1325;-89
2023/10/14 00:54:26;;;;;;;16.65;8.25;;;;;;;22.65;56.24;99370.19;688291;28;1198;-93
2023/10/14 00:57:59;;;;;;;14.20;7.70;;;;;;;22.08;58.32;99338.09;696441;28;682;-93
2023/10/14 00:58:43;;;;;;;12.30;7.57;;;;;;;22.04;58.90;99342.66;690921;28;1071;-93
2023/10/14 00:59:04;;;;;;;12.98;7.75;;;;;;;21.95;58.96;99348.38;690434;28;1305;-95
2023/10/14 00:59:28;;;;;;;13.77;7.80;;;;;;;21.97;59.23;99333.22;690853;28;1328;-94
2023/10/14 00:59:51;;;;;;;13.18;7.60;;;;;;;21.98;59.04;99353.53;693971;28;1319;-92
2023/10/14 01:00:19;;;;;;;13.50;7.72;;;;;;;22.03;59.17;99349.78;696721;28;1226;-89
2023/10/14 01:00:56;;;;;;;13.35;7.97;;;;;;;21.90;59.81;99352.06;694078;28;1232;-92
2023/10/14 01:01:17;;;;;;;12.80;7.40;;;;;;;21.86;59.76;99339.88;693960;28;1450;-90
2023/10/14 01:01:59;;;;;;;12.57;7.30;;;;;;;21.91;59.79;99369.75;688732;28;1322;-93
2023/10/14 01:02:29;;;;;;;15.20;8.15;;;;;;;21.84;60.00;99336.41;688505;28;2040;-93
2023/10/14 01:02:52;;;;;;;14.40;7.97;;;;;;;21.90;59.83;99352.06;685859;28;1515;-90
2023/10/14 01:03:16;;;;;;;13.05;7.68;;;;;;;21.97;59.83;99363.31;688124;28;1244;-94
2023/10/14 01:03:36;;;;;;;11.30;7.38;;;;;;;21.95;59.97;99365.16;691313;28;1364;-92
2023/10/14 01:04:18;;;;;;;12.30;7.60;;;;;;;21.94;59.94;99357.28;691048;28;1263;-95
2023/10/14 01:04:41;;;;;;;13.55;7.90;;;;;;;21.91;59.99;99359.13;695815;28;1200;-90
2023/10/14 01:07:39;;;;;;;11.20;6.60;;;;;;;22.01;60.03;99361.41;699577;28;893;-91
2023/10/14 01:08:02;;;;;;;11.38;6.63;;;;;;;21.96;60.03;99355.41;699706;28;1268;-92
2023/10/14 01:08:25;;;;;;;13.18;7.10;;;;;;;21.99;60.07;99365.88;694179;28;1287;-91
2023/10/14 01:08:49;;;;;;;14.15;7.63;;;;;;;21.94;60.04;99367.88;691500;28;1445;-92
2023/10/14 01:09:10;;;;;;;19.50;7.65;;;;;;;21.95;59.87;99375.78;696439;28;1247;-94
2023/10/14 01:09:55;;;;;;;21.95;7.30;;;;;;;21.94;60.06;99362.59;688513;28;1267;-93
2023/10/14 01:10:24;;;;;;;13.68;7.20;;;;;;;22.03;59.95;99346.25;688180;28;1344;-92
2023/10/14 01:10:45;;;;;;;12.13;6.80;;;;;;;22.09;59.69;99366.38;685523;28;1288;-92
2023/10/14 01:17:06;;;;;;;13.23;6.90;;;;;;;22.30;58.85;99383.22;699984;28;681;-93
2023/10/14 01:17:45;;;;;;;13.38;6.28;;;;;;;22.17;58.84;99370.44;699740;28;692;-92
2023/10/14 01:18:25;;;;;;;12.15;6.20;;;;;;;22.22;59.01;99375.56;696755;28;999;-95
2023/10/14 01:19:05;;;;;;;12.02;6.53;;;;;;;22.11;59.36;99385.75;697042;28;704;-92
2023/10/14 01:19:46;;;;;;;13.20;7.40;;;;;;;22.08;59.22;99389.44;694190;28;694;-93
2023/10/14 01:20:46;;;;;;;16.10;6.90;;;;;;;22.04;59.34;99412.59;688484;28;1469;-94
2023/10/14 01:21:07;;;;;;;19.90;7.00;;;;;;;22.04;59.53;99411.72;683310;28;1476;-91
2023/10/14 01:21:28;;;;;;;15.38;7.18;;;;;;;22.01;59.35;99419.81;688342;28;1352;-89
2023/10/14 01:21:52;;;;;;;17.00;6.97;;;;;;;21.91;59.34;99417.56;687975;28;1252;-93
2023/10/14 01:22:13;;;;;;;10.70;5.75;;;;;;;21.88;59.44;99428.28;690849;28;1965;-91
2023/10/14 01:22:34;;;;;;;11.18;5.28;;;;;;;21.89;59.35;99459.22;688355;28;1231;-91
2023/10/14 01:22:57;;;;;;;7.93;4.20;;;;;;;21.84;58.99;99463.88;685678;28;1377;-93
2023/10/14 01:23:17;;;;;;;7.13;3.50;;;;;;;21.76;58.87;99450.88;687135;28;1267;-93
2023/10/14 01:23:44;;;;;;;5.30;2.80;;;;;;;21.71;58.96;99458.16;691119;28;1168;-91
2023/10/14 01:24:15;;;;;;;4.18;2.30;;;;;;;21.61;58.69;99457.69;690817;28;1348;-93
2023/10/14 01:24:39;;;;;;;4.10;2.00;;;;;;;21.45;58.67;99456.50;688495;28;1351;-92
2023/10/14 01:25:05;;;;;;;4.55;2.00;;;;;;;21.33;58.38;99441.94;694098;28;1422;-90
2023/10/14 01:25:31;;;;;;;4.20;2.00;;;;;;;21.24;58.54;99443.13;691310;28;1408;-92
2023/10/14 01:25:52;;;;;;;3.83;2.03;;;;;;;21.08;58.84;99449.00;691380;28;1263;-93
2023/10/14 01:26:13;;;;;;;4.22;2.00;;;;;;;21.00;58.83;99435.16;694692;28;1311;-91
2023/10/14 01:26:34;;;;;;;5.28;2.00;;;;;;;20.90;59.03;99423.19;693435;28;1179;-92
2023/10/14 01:27:01;;;;;;;4.73;1.70;;;;;;;20.88;58.69;99451.50;695945;28;1196;-92
2023/10/14 01:27:24;;;;;;;4.53;1.48;;;;;;;20.75;58.81;99456.38;690458;28;1393;-92
2023/10/14 01:27:45;;;;;;;3.10;1.20;;;;;;;20.58;59.05;99430.47;688416;28;1237;-93
2023/10/14 01:28:11;;;;;;;3.00;1.20;;;;;;;20.52;59.01;99456.25;691287;28;1223;-93
2023/10/14 01:28:33;;;;;;;1.83;1.13;;;;;;;20.45;59.09;99486.53;691015;28;1196;-91
2023/10/14 01:28:59;;;;;;;1.95;1.20;;;;;;;20.25;59.06;99456.28;693922;28;1285;-91
2023/10/14 01:29:30;;;;;;;2.00;1.20;;;;;;;20.23;59.14;99473.97;688426;28;1236;-91
2023/10/14 01:29:51;;;;;;;1.80;1.10;;;;;;;20.02;59.13;99450.88;691349;28;1227;-93
2023/10/14 01:30:21;;;;;;;1.90;1.20;;;;;;;19.95;59.25;99466.97;699344;28;1482;-92
2023/10/14 01:31:10;;;;;;;1.70;1.05;;;;;;;19.80;59.75;99480.63;690774;28;1216;-91
2023/10/14 01:31:57;;;;;;;3.20;1.13;;;;;;;19.67;59.80;99464.28;690981;28;1266;-91
2023/10/14 01:33:16;;;;;;;2.00;1.10;;;;;;;19.39;60.22;99489.78;691215;28;1398;-93
2023/10/14 01:33:38;;;;;;;1.98;1.13;;;;;;;19.23;60.31;99494.63;685824;28;1316;-93
2023/10/14 01:34:01;;;;;;;1.83;1.00;;;;;;;19.17;60.47;99498.31;693694;28;1164;-91
2023/10/14 01:34:28;;;;;;;1.90;1.10;;;;;;;19.04;60.70;99494.28;693934;28;1349;-91
2023/10/14 01:34:58;;;;;;;1.70;0.90;;;;;;;18.93;60.97;99480.47;693938;28;1246;-91
2023/10/14 01:35:45;;;;;;;1.90;1.00;;;;;;;18.79;61.41;99479.06;693985;28;1284;-93
2023/10/14 01:36:08;;;;;;;2.28;1.08;;;;;;;18.72;61.52;99488.06;685851;28;1336;-91
2023/10/14 01:36:32;;;;;;;2.00;1.00;;;;;;;18.64;61.73;99491.75;690871;28;1306;-91
2023/10/14 01:36:53;;;;;;;2.40;1.00;;;;;;;18.64;61.75;99491.75;694053;28;1261;-91
2023/10/14 01:37:19;;;;;;;2.22;1.00;;;;;;;18.65;61.73;99495.28;690730;28;1161;-91
2023/10/14 01:37:44;;;;;;;3.28;1.20;;;;;;;18.45;61.95;99488.72;693766;28;1153;-93
2023/10/14 01:38:05;;;;;;;3.00;1.20;;;;;;;18.33;62.40;99481.97;693925;28;1403;-89
2023/10/14 01:38:27;;;;;;;3.17;1.20;;;;;;;18.33;62.47;99489.91;696414;28;1117;-93
2023/10/14 01:38:58;;;;;;;2.40;1.17;;;;;;;18.21;62.45;99484.94;693640;28;1340;-91
2023/10/14 01:39:25;;;;;;;2.47;1.10;;;;;;;18.19;62.58;99490.25;689309;28;1284;-92
2023/10/14 01:39:50;;;;;;;2.05;1.13;;;;;;;18.10;62.83;99485.16;693563;28;1286;-92
2023/10/14 01:40:50;;;;;;;2.10;0.93;;;;;;;18.05;63.18;99485.28;696569;28;1290;-92
2023/10/14 01:41:14;;;;;;;3.55;1.05;;;;;;;17.81;63.43;99479.66;698594;28;1243;-92
2023/10/14 01:41:35;;;;;;;3.90;1.17;;;;;;;17.77;63.40;99467.44;693613;28;1453;-92
2023/10/14 01:41:56;;;;;;;2.45;1.00;;;;;;;17.78;63.70;99476.22;693598;28;1310;-92
2023/10/14 01:42:19;;;;;;;1.90;0.90;;;;;;;17.70;63.75;99475.53;698398;28;2356;-89
2023/10/14 01:42:39;;;;;;;1.73;0.90;;;;;;;17.74;63.80;99478.06;696805;28;1209;-91
2023/10/14 01:43:07;;;;;;;1.88;1.00;;;;;;;17.71;63.89;99482.53;694058;28;1210;-92
2023/10/14 01:43:31;;;;;;;2.30;1.00;;;;;;;17.62;63.78;99466.03;699408;28;1276;-92
2023/10/14 01:43:52;;;;;;;2.10;1.05;;;;;;;17.60;63.96;99461.66;696681;28;1285;-90
2023/10/14 01:44:21;;;;;;;1.80;1.00;;;;;;;17.62;63.84;99473.06;699584;28;1379;-91
2023/10/14 01:44:42;;;;;;;1.98;1.10;;;;;;;17.47;64.31;99464.59;691285;28;1351;-93
2023/10/14 01:45:04;;;;;;;2.00;1.10;;;;;;;17.49;64.47;99475.97;696925;28;1460;-93
2023/10/14 01:45:32;;;;;;;1.80;1.05;;;;;;;17.43;64.48;99477.84;688069;28;1282;-90
2023/10/14 01:46:18;;;;;;;1.90;0.98;;;;;;;17.36;64.54;99469.22;699397;28;1376;-93
2023/10/14 01:51:04;;;;;;;1.75;1.00;;;;;;;17.24;65.11;99508.13;705487;28;661;-92
2023/10/14 01:51:46;;;;;;;1.95;0.90;;;;;;;17.20;65.29;99492.38;699647;28;1022;-95
2023/10/14 01:52:14;;;;;;;1.88;0.95;;;;;;;17.19;65.19;99483.56;696773;28;1218;-95
2023/10/14 01:53:17;;;;;;;2.10;1.20;;;;;;;17.12;65.46;99500.41;693114;28;1285;-90
2023/10/14 01:59:28;;;;;;;2.78;1.20;;;;;;;16.94;65.75;99533.25;705329;28;803;-94
2023/10/14 01:59:49;;;;;;;2.47;1.00;;;;;;;16.96;65.79;99553.41;704977;28;1345;-94
2023/10/14 02:00:24;;;;;;;2.42;1.00;;;;;;;16.93;65.94;99564.00;696520;28;1174;-94
2023/10/14 02:00:46;;;;;;;2.60;1.10;;;;;;;16.82;66.15;99553.66;691138;28;1573;-94
2023/10/14 02:01:35;;;;;;;2.08;1.08;;;;;;;16.89;66.03;99562.31;688340;28;1220;-91
2023/10/14 02:01:58;;;;;;;1.70;1.00;;;;;;;16.95;66.14;99572.75;691255;28;1277;-93
2023/10/14 02:02:21;;;;;;;1.50;0.90;;;;;;;16.87;66.11;99569.38;696470;28;1899;-95
2023/10/14 02:02:48;;;;;;;1.40;0.90;;;;;;;16.79;66.24;99566.00;693937;28;1212;-93
2023/10/14 02:03:10;;;;;;;2.33;0.93;;;;;;;16.86;66.32;99562.38;691550;28;1241;-94
2023/10/14 02:03:43;;;;;;;2.50;0.90;;;;;;;16.89;66.46;99567.59;691138;28;1334;-92
2023/10/14 02:04:04;;;;;;;2.45;1.00;;;;;;;16.95;66.11;99567.47;694071;28;1228;-93
2023/10/14 02:04:26;;;;;;;1.90;0.90;;;;;;;16.89;66.02;99567.59;699374;28;1172;-94
2023/10/14 02:04:50;;;;;;;2.80;1.00;;;;;;;16.92;66.17;99572.81;693882;28;1269;-91
2023/10/14 02:05:14;;;;;;;2.90;1.00;;;;;;;16.74;66.36;99557.31;693899;28;1333;-94
2023/10/14 02:05:40;;;;;;;2.90;1.00;;;;;;;16.82;66.11;99563.31;696604;28;1355;-94
2023/10/14 02:06:10;;;;;;;1.88;1.10;;;;;;;16.89;66.31;99582.53;699629;28;1382;-93
2023/10/14 02:06:31;;;;;;;1.90;1.10;;;;;;;16.85;66.09;99571.19;696178;28;1212;-94
2023/10/14 02:07:35;;;;;;;1.80;1.00;;;;;;;16.88;66.10;99581.66;688599;28;1263;-94
2023/10/14 02:07:37;;;;;;;1.60;0.90;;;;;;;16.82;66.43;99581.75;683114;28;1236;-93
2023/10/14 02:07:58;;;;;;;1.60;0.90;;;;;;;16.80;66.17;99583.56;691269;28;1186;-92
2023/10/14 02:08:21;;;;;;;1.60;0.90;;;;;;;16.78;66.44;99580.94;693986;28;1251;-93
2023/10/14 02:08:42;;;;;;;1.60;0.90;;;;;;;16.74;66.46;99574.00;693959;28;1371;-94
2023/10/14 02:09:04;;;;;;;2.38;0.93;;;;;;;16.69;66.54;99575.81;688761;28;1326;-93
2023/10/14 02:09:29;;;;;;;3.10;1.20;;;;;;;16.72;66.55;99587.19;693928;28;1251;-93
2023/10/14 02:09:55;;;;;;;3.00;1.20;;;;;;;16.76;66.34;99584.50;696630;28;1325;-94
2023/10/14 02:10:16;;;;;;;2.30;1.10;;;;;;;16.72;66.45;99587.19;693832;28;1194;-94
2023/10/14 02:10:37;;;;;;;2.40;1.10;;;;;;;16.77;66.51;99596.78;693791;28;1435;-93
2023/10/14 02:10:58;;;;;;;2.40;1.10;;;;;;;16.69;66.47;99579.34;699306;28;1239;-92
2023/10/14 02:11:32;;;;;;;1.60;0.93;;;;;;;16.78;66.54;99583.56;693530;28;1292;-93
2023/10/14 02:11:54;;;;;;;1.50;0.90;;;;;;;16.75;66.23;99586.28;692992;28;1241;-93
2023/10/14 02:12:15;;;;;;;1.70;0.90;;;;;;;16.73;66.54;99590.69;696415;28;1248;-94
2023/10/14 02:12:36;;;;;;;1.67;0.90;;;;;;;16.73;66.88;99595.97;693724;28;1307;-94
2023/10/14 02:13:00;;;;;;;2.00;0.90;;;;;;;16.81;66.60;99606.38;699456;28;1220;-94
2023/10/14 02:13:22;;;;;;;1.77;0.80;;;;;;;16.74;66.33;99599.47;696482;28;1472;-93
2023/10/14 02:13:43;;;;;;;2.40;0.90;;;;;;;16.78;66.48;99606.44;689081;28;1280;-92
2023/10/14 02:14:07;;;;;;;2.60;0.95;;;;;;;16.74;66.31;99599.47;696607;28;1318;-94
2023/10/14 02:14:27;;;;;;;2.72;1.00;;;;;;;16.71;66.70;99603.88;693836;28;1256;-93
2023/10/14 02:14:57;;;;;;;1.77;1.00;;;;;;;16.74;66.72;99613.50;688621;28;1277;-92
2023/10/14 02:15:17;;;;;;;1.98;0.90;;;;;;;16.67;66.90;99609.22;693557;28;1285;-91
2023/10/14 02:15:38;;;;;;;2.00;0.93;;;;;;;16.66;66.54;99613.63;693583;28;1306;-91
2023/10/14 02:16:08;;;;;;;1.85;0.90;;;;;;;16.66;66.80;99618.03;693894;28;1169;-92
2023/10/14 02:16:40;;;;;;;1.30;0.80;;;;;;;16.66;66.88;99624.16;693905;28;1322;-94
2023/10/14 02:17:01;;;;;;;1.40;0.80;;;;;;;16.63;66.78;99618.94;693606;28;1299;-93
2023/10/14 02:17:23;;;;;;;1.40;0.80;;;;;;;16.69;66.94;99628.50;688566;28;1298;-94
2023/10/14 02:17:48;;;;;;;1.40;0.90;;;;;;;16.61;66.74;99627.75;688147;28;1386;-94
2023/10/14 02:18:09;;;;;;;1.50;0.90;;;;;;;16.61;66.86;99631.28;690743;28;1243;-94
2023/10/14 02:18:30;;;;;;;1.50;0.93;;;;;;;16.52;66.98;99628.75;688684;28;1206;-95
2023/10/14 02:19:00;;;;;;;1.48;0.80;;;;;;;16.59;66.83;99638.31;691650;28;1290;-95
2023/10/14 02:19:36;;;;;;;3.55;0.90;;;;;;;16.56;66.93;99631.34;693664;28;1310;-94
2023/10/14 02:22:38;;;;;;;3.50;1.00;;;;;;;16.57;67.08;99633.09;698616;28;675;-94
2023/10/14 02:22:57;;;;;;;2.90;1.00;;;;;;;16.56;67.22;99633.09;696358;28;1143;-94
2023/10/14 02:23:44;;;;;;;1.80;0.90;;;;;;;16.66;67.12;99634.69;699576;28;1138;-94
2023/10/14 02:24:09;;;;;;;1.40;0.85;;;;;;;16.67;66.95;99638.22;691096;28;1366;-93
2023/10/14 02:24:31;;;;;;;1.73;1.00;;;;;;;16.70;67.00;99654.84;688366;28;1520;-95
2023/10/14 02:24:56;;;;;;;1.80;1.00;;;;;;;16.68;67.00;99643.47;685333;28;1313;-93
2023/10/14 02:25:17;;;;;;;1.75;0.98;;;;;;;16.67;66.81;99643.47;688324;28;1342;-93
2023/10/14 02:25:38;;;;;;;2.20;1.00;;;;;;;16.65;67.28;99638.22;688166;28;1236;-94
2023/10/14 02:26:00;;;;;;;2.20;1.00;;;;;;;16.65;67.09;99643.50;682893;29;1169;-92
2023/10/14 02:26:24;;;;;;;2.40;1.00;;;;;;;16.65;66.96;99638.22;690775;28;1217;-94
2023/10/14 02:26:48;;;;;;;5.70;1.00;;;;;;;16.62;67.06;99635.66;693926;28;1369;-93
2023/10/14 02:27:12;;;;;;;7.00;1.10;;;;;;;16.71;67.00;99648.66;691220;28;1390;-94
2023/10/14 02:27:33;;;;;;;2.90;0.90;;;;;;;16.60;67.11;99629.53;696665;28;1266;-92
2023/10/14 02:27:54;;;;;;;4.30;0.90;;;;;;;16.68;66.94;99648.72;695638;28;1204;-92
2023/10/14 02:28:14;;;;;;;3.50;1.10;;;;;;;16.63;67.04;99642.66;691214;28;1233;-94
2023/10/14 02:28:41;;;;;;;4.03;1.30;;;;;;;16.63;67.36;99647.91;693709;28;1148;-92
2023/10/14 02:29:07;;;;;;;2.30;1.17;;;;;;;16.66;67.25;99654.91;691133;28;1271;-93
2023/10/14 02:29:28;;;;;;;1.58;0.93;;;;;;;16.63;66.94;99645.28;696568;28;1289;-93
2023/10/14 02:29:48;;;;;;;1.55;0.98;;;;;;;16.65;66.96;99646.13;693613;28;1271;-93
2023/10/14 02:30:11;;;;;;;1.40;0.80;;;;;;;16.72;67.06;99655.66;691110;28;1216;-92
2023/10/14 02:30:32;;;;;;;1.38;0.85;;;;;;;16.63;67.25;99645.28;685695;28;1319;-92
2023/10/14 02:30:53;;;;;;;3.00;1.00;;;;;;;16.65;67.14;99651.38;688506;28;1220;-94
2023/10/14 02:31:18;;;;;;;3.20;1.10;;;;;;;16.59;67.16;99646.22;688491;28;1241;-93
2023/10/14 02:31:38;;;;;;;2.10;1.08;;;;;;;16.58;67.29;99647.09;688408;28;1434;-95
2023/10/14 02:32:00;;;;;;;2.47;1.10;;;;;;;16.62;67.23;99650.56;691175;28;1268;-93
2023/10/14 02:32:21;;;;;;;2.00;0.90;;;;;;;16.63;67.33;99661.09;688038;28;1273;-94
2023/10/14 02:32:42;;;;;;;2.00;0.90;;;;;;;16.57;67.45;99655.91;686346;28;1326;-93